KEAU/EAU METAR and TAF weather

Enter ICAO airport designator
Station Type Date Time Source
KEAU METAR 2018/07/21 12:56 UTC NOAA

KEAU 211256Z 03008KT 10SM BKN085 19/15 A2996 RMK AO2 SLP144 T01940150


Station Type Date Time Source
KEAU Decoded METAR 2018/07/21 12:56 UTC NOAA

EAU CLAIRE CHIPPEWA VALLEY, WI, United States (KEAU) 44-52N 091-29W
Jul 21, 2018 - 08:56 AM EDT / 2018.07.21 1256 UTC
Wind: from the NNE (030 degrees) at 9 MPH (8 KT):0
Visibility: 10 mile(s):0
Sky conditions: mostly cloudy
Temperature: 66.9 F (19.4 C)
Dew Point: 59.0 F (15.0 C)
Relative Humidity: 75%
Pressure (altimeter): 29.96 in. Hg (1014 hPa)
ob: KEAU 211256Z 03008KT 10SM BKN085 19/15 A2996 RMK AO2 SLP144 T01940150
cycle: 13

Station Type Date Time Source
KEAU TAF 2018/07/21 12:22 UTC NOAA

TAF KEAU 211120Z 2112/2212 01005KT P6SM SCT050 BKN070
FM211400 01005KT P6SM FEW050 SCT060
FM211900 01012KT P6SM FEW040 SCT090
FM221000 01007KT P6SM FEW040 SCT070


Example: see airport list